Terminal Aerodrome Forecast
Issued by NWS Blacksburg, VA

Home | Current Version | Previous Version | Text Only | Print | Product List | Glossary On
Versions: 1 2 3 4 5 6 7 8 9 10 11 12 13 14 15 16 17
000
FTUS41 KRNK 261128
TAFLYH
TAF
KLYH 261128Z 2612/2712 VRB03KT P6SM SCT250
     FM262100 18008KT P6SM OVC100
     FM270400 07009KT P6SM -RA OVC030
     FM270600 06004KT 3SM -SHRA BR OVC008
     FM271100 VRB03KT 2SM -SHRA BR SCT003 OVC015=

USA.gov is the U.S. government's official web portal to all federal, state and local government web resources and services.